createdAt,value
2023-03-15T00:10:04.379Z,6.79
2023-03-15T00:12:33.771Z,6.96
2023-03-15T00:15:01.451Z,6.93
2023-03-15T00:17:28.376Z,6.86
2023-03-15T00:19:55.456Z,6.80
2023-03-15T00:22:22.651Z,6.74
2023-03-15T00:24:49.548Z,6.67
2023-03-15T00:27:16.467Z,6.61
2023-03-15T00:29:43.253Z,6.56
2023-03-15T00:32:10.483Z,6.48
2023-03-15T00:34:40.788Z,6.42
2023-03-15T00:37:08.142Z,6.36
2023-03-15T00:39:37.442Z,6.29
2023-03-15T00:42:04.450Z,6.25
2023-03-15T00:44:34.937Z,6.21
2023-03-15T00:47:02.648Z,6.17
2023-03-15T00:49:33.313Z,6.14
2023-03-15T00:52:01.941Z,6.11
2023-03-15T00:54:29.560Z,6.08
2023-03-15T00:56:56.783Z,6.05
2023-03-15T00:59:24.273Z,6.03
2023-03-15T01:01:51.767Z,6.00
2023-03-15T01:04:19.095Z,5.98
2023-03-15T01:06:46.749Z,5.95
2023-03-15T01:09:13.723Z,5.93
2023-03-15T01:11:41.360Z,5.92
2023-03-15T01:14:09.129Z,5.91
2023-03-15T01:16:40.528Z,5.89
2023-03-15T01:19:11.612Z,5.88
2023-03-15T01:21:38.805Z,5.86
2023-03-15T01:24:05.954Z,5.84
2023-03-15T01:26:33.709Z,5.88
2023-03-15T01:29:00.503Z,5.96
2023-03-15T01:31:29.802Z,6.05
2023-03-15T01:33:57.697Z,6.11
2023-03-15T01:36:25.298Z,6.15
2023-03-15T01:38:54.550Z,6.16
2023-03-15T01:41:26.715Z,6.18
2023-03-15T01:43:54.068Z,6.16
2023-03-15T01:46:26.441Z,6.12
2023-03-15T01:49:12.028Z,6.10
2023-03-15T01:51:46.397Z,6.07
2023-03-15T01:54:38.675Z,6.01
2023-03-15T01:57:26.729Z,5.93
2023-03-15T01:59:56.958Z,5.86
2023-03-15T02:02:24.223Z,5.81
2023-03-15T02:04:59.611Z,5.78
2023-03-15T02:07:27.515Z,5.75
2023-03-15T02:10:05.223Z,5.71
2023-03-15T02:12:38.843Z,5.68
2023-03-15T02:15:07.174Z,5.64
2023-03-15T02:17:42.759Z,5.63
2023-03-15T02:20:32.682Z,5.62
2023-03-15T02:23:07.849Z,5.69
2023-03-15T02:25:45.900Z,5.79
2023-03-15T02:28:14.367Z,5.89
2023-03-15T02:30:42.939Z,5.94
2023-03-15T02:33:15.532Z,5.94
2023-03-15T02:35:42.641Z,5.90
2023-03-15T02:38:12.436Z,5.82
2023-03-15T02:40:40.438Z,5.71
2023-03-15T02:43:18.546Z,5.58
2023-03-15T02:45:46.032Z,5.46
2023-03-15T02:48:13.270Z,5.34
2023-03-15T02:50:45.028Z,5.26
2023-03-15T02:53:12.503Z,5.16
2023-03-15T02:55:39.539Z,5.09
2023-03-15T02:58:06.759Z,5.03
2023-03-15T03:00:33.968Z,4.97
2023-03-15T03:03:01.678Z,4.94
2023-03-15T03:05:29.019Z,4.90
2023-03-15T03:07:56.419Z,4.87
2023-03-15T03:10:23.457Z,4.89
2023-03-15T03:12:53.171Z,4.92
2023-03-15T03:15:24.807Z,4.96
2023-03-15T03:17:54.028Z,5.05
2023-03-15T03:20:23.877Z,5.11
2023-03-15T03:22:55.532Z,5.13
2023-03-15T03:25:26.307Z,5.12
2023-03-15T03:27:56.721Z,5.08
2023-03-15T03:30:24.107Z,5.02
2023-03-15T03:32:51.643Z,4.93
2023-03-15T03:35:20.866Z,4.83
2023-03-15T03:37:47.814Z,4.73
2023-03-15T03:40:23.082Z,4.65
2023-03-15T03:42:50.015Z,4.56
2023-03-15T03:45:18.478Z,4.47
2023-03-15T03:47:51.434Z,4.42
2023-03-15T03:50:18.410Z,4.39
2023-03-15T03:52:46.174Z,4.37
2023-03-15T03:55:18.862Z,4.36
2023-03-15T03:57:45.798Z,4.37
2023-03-15T04:00:19.024Z,4.44
2023-03-15T04:02:48.952Z,4.53
2023-03-15T04:05:16.772Z,4.60
2023-03-15T04:07:45.156Z,4.65
2023-03-15T04:10:16.307Z,4.65
2023-03-15T04:12:46.219Z,4.63
2023-03-15T04:15:14.702Z,4.60
2023-03-15T04:17:42.561Z,4.59
2023-03-15T04:20:12.279Z,4.56
2023-03-15T04:22:49.075Z,4.50
2023-03-15T04:25:26.137Z,4.44
2023-03-15T04:28:10.213Z,4.42
2023-03-15T04:30:58.263Z,4.38
2023-03-15T04:33:37.469Z,4.36
2023-03-15T04:36:07.706Z,4.37
2023-03-15T04:38:47.840Z,4.44
2023-03-15T04:41:42.320Z,4.54
2023-03-15T04:44:34.937Z,4.65
2023-03-15T04:47:04.906Z,4.76
2023-03-15T04:49:46.994Z,4.83
2023-03-15T04:52:40.419Z,4.86
2023-03-15T04:55:31.304Z,4.88
2023-03-15T04:57:58.072Z,4.88
2023-03-15T05:00:48.376Z,4.89
2023-03-15T05:03:28.252Z,4.94
2023-03-15T05:06:14.786Z,4.95
2023-03-15T05:09:04.437Z,4.95
2023-03-15T05:11:51.562Z,4.93
2023-03-15T05:14:35.806Z,4.94
2023-03-15T05:17:14.934Z,4.97
2023-03-15T05:19:41.983Z,5.06
2023-03-15T05:22:27.873Z,5.21
2023-03-15T05:25:14.730Z,5.33
2023-03-15T05:28:07.771Z,5.46
2023-03-15T05:31:01.972Z,5.59
2023-03-15T05:33:54.164Z,5.69
2023-03-15T05:36:36.631Z,5.73
2023-03-15T05:39:16.259Z,5.74
2023-03-15T05:42:06.239Z,5.73
2023-03-15T05:44:49.659Z,5.68
2023-03-15T05:47:36.855Z,5.64
2023-03-15T05:50:17.116Z,5.67
2023-03-15T05:52:59.417Z,5.71
2023-03-15T05:55:43.165Z,5.74
2023-03-15T05:58:12.148Z,5.77
2023-03-15T06:01:03.874Z,5.85
2023-03-15T06:03:58.532Z,5.98
2023-03-15T06:06:26.660Z,6.11
2023-03-15T06:08:53.588Z,6.22
2023-03-15T06:11:21.456Z,6.31
2023-03-15T06:13:48.917Z,6.37
2023-03-15T06:16:25.783Z,6.44
2023-03-15T06:18:55.809Z,6.53
2023-03-15T06:21:23.059Z,6.61
2023-03-15T06:23:57.071Z,6.67
2023-03-15T06:26:23.876Z,6.74
2023-03-15T06:28:53.325Z,6.78
2023-03-15T06:31:23.030Z,6.86
2023-03-15T06:33:55.063Z,6.97
2023-03-15T06:36:24.598Z,7.10
2023-03-15T06:38:54.108Z,7.26
2023-03-15T06:41:21.261Z,7.42
2023-03-15T06:43:51.582Z,7.54
2023-03-15T06:46:18.820Z,7.64
2023-03-15T06:48:45.705Z,7.74
2023-03-15T06:51:15.798Z,7.80
2023-03-15T06:53:43.363Z,7.84
2023-03-15T06:56:10.616Z,7.85
2023-03-15T06:58:38.708Z,7.86
2023-03-15T07:01:07.434Z,7.87
2023-03-15T07:03:35.338Z,7.86
2023-03-15T07:06:02.512Z,7.83
2023-03-15T07:08:30.226Z,7.81
2023-03-15T07:10:57.339Z,7.80
2023-03-15T07:13:24.256Z,7.82
2023-03-15T07:56:27.083Z,8.61
2023-03-15T07:58:54.044Z,8.70
2023-03-15T08:01:21.101Z,8.77
2023-03-15T08:03:48.400Z,8.81
2023-03-15T08:06:17.197Z,8.83
2023-03-15T08:08:44.385Z,8.87
2023-03-15T08:11:11.228Z,8.91
2023-03-15T08:13:41.248Z,8.92
2023-03-15T08:16:08.980Z,8.90
2023-03-15T08:18:46.208Z,8.85
2023-03-15T08:21:13.494Z,8.82
2023-03-15T08:23:40.285Z,8.82
2023-03-15T08:30:20.615Z,8.96
2023-03-15T08:32:48.657Z,9.11
2023-03-15T08:35:16.252Z,9.22
2023-03-15T08:37:47.279Z,9.30
2023-03-15T08:40:15.402Z,9.36
2023-03-15T08:42:42.152Z,9.43
2023-03-15T08:45:10.886Z,9.52
2023-03-15T08:47:54.170Z,9.56
2023-03-15T08:50:25.856Z,9.61
2023-03-15T08:52:52.654Z,9.64
2023-03-15T08:55:19.494Z,9.67
2023-03-15T08:57:46.282Z,9.72
2023-03-15T09:00:19.607Z,9.77
2023-03-15T09:02:51.442Z,9.81
2023-03-15T09:05:18.334Z,9.85
2023-03-15T09:07:45.152Z,9.89
2023-03-15T09:10:17.457Z,9.92
2023-03-15T09:12:46.306Z,9.96
2023-03-15T09:15:13.221Z,10.01
2023-03-15T09:17:42.835Z,10.05
2023-03-15T09:20:13.716Z,10.08
2023-03-15T09:22:44.333Z,10.11
2023-03-15T09:25:11.415Z,10.18
2023-03-15T09:27:41.499Z,10.24
2023-03-15T09:30:15.632Z,10.29
2023-03-15T09:32:43.720Z,10.34
2023-03-15T09:35:13.623Z,10.41
2023-03-15T09:37:41.985Z,10.50
2023-03-15T09:40:23.894Z,10.55
2023-03-15T09:43:03.298Z,10.61
2023-03-15T09:45:52.295Z,10.68
2023-03-15T09:48:45.865Z,10.77
2023-03-15T09:51:38.928Z,10.88
2023-03-15T09:54:31.752Z,10.95
2023-03-15T09:57:02.940Z,11.05
2023-03-15T09:59:35.791Z,11.09
2023-03-15T10:02:12.723Z,11.04
2023-03-15T10:04:41.758Z,11.09
2023-03-15T10:07:13.304Z,11.15
2023-03-15T10:09:40.054Z,11.16
2023-03-15T10:12:15.565Z,11.22
2023-03-15T10:15:21.669Z,11.29
2023-03-15T10:17:59.045Z,11.35
2023-03-15T10:20:36.278Z,11.37
2023-03-15T10:23:16.186Z,11.39
2023-03-15T10:25:47.325Z,11.39
2023-03-15T10:28:27.241Z,11.40
2023-03-15T10:31:00.205Z,11.45
2023-03-15T10:33:34.820Z,11.52
2023-03-15T10:36:10.897Z,11.59
2023-03-15T10:38:39.002Z,11.64
2023-03-15T10:41:06.486Z,11.73
2023-03-15T10:43:36.369Z,11.83
2023-03-15T10:46:22.675Z,11.94
2023-03-15T10:48:58.668Z,12.08
2023-03-15T10:51:28.764Z,12.21
2023-03-15T10:53:59.254Z,12.29
2023-03-15T10:56:28.231Z,12.36
2023-03-15T10:59:11.606Z,12.41
2023-03-15T11:01:39.627Z,12.50
2023-03-15T11:04:07.242Z,12.58
2023-03-15T11:06:45.887Z,12.66
2023-03-15T11:09:17.587Z,12.77
2023-03-15T11:11:55.152Z,12.89
2023-03-15T11:14:26.704Z,13.01
2023-03-15T11:16:55.708Z,13.07
2023-03-15T11:19:28.489Z,13.10
2023-03-15T11:21:57.332Z,13.10
2023-03-15T11:24:27.985Z,13.05
2023-03-15T11:26:55.631Z,12.99
2023-03-15T11:29:28.811Z,13.00
2023-03-15T11:31:55.777Z,13.06
2023-03-15T11:34:28.839Z,13.11
2023-03-15T11:37:07.535Z,13.16
2023-03-15T11:39:44.645Z,13.21
2023-03-15T11:42:18.429Z,13.29
2023-03-15T11:44:49.182Z,13.37
2023-03-15T11:47:17.870Z,13.46
2023-03-15T11:49:55.143Z,13.58
2023-03-15T11:52:23.227Z,13.67
2023-03-15T11:54:57.836Z,13.74
2023-03-15T11:57:27.735Z,13.85
2023-03-15T12:00:21.716Z,13.85
2023-03-15T12:02:50.994Z,13.93
2023-03-15T12:05:58.882Z,14.01
2023-03-15T12:08:34.135Z,14.07
2023-03-15T12:11:01.282Z,14.11
2023-03-15T12:13:30.022Z,14.19
2023-03-15T12:28:10.083Z,14.51
2023-03-15T12:30:42.872Z,14.92
2023-03-15T12:33:16.895Z,14.94
2023-03-15T12:35:45.009Z,14.92
2023-03-15T12:38:20.867Z,14.84
2023-03-15T12:40:53.240Z,14.78
2023-03-15T12:44:02.554Z,14.76
2023-03-15T12:46:41.484Z,14.80
2023-03-15T12:49:18.722Z,14.83
2023-03-15T12:52:00.555Z,14.90
2023-03-15T12:54:41.850Z,14.92
2023-03-15T12:57:22.966Z,14.87
2023-03-15T12:59:55.750Z,14.81
2023-03-15T13:02:43.812Z,14.82
2023-03-15T13:05:26.460Z,14.83
2023-03-15T13:08:22.159Z,14.82
2023-03-15T13:11:29.681Z,14.82
2023-03-15T13:14:07.585Z,14.80
2023-03-15T13:16:48.762Z,14.78
2023-03-15T13:19:19.393Z,14.87
2023-03-15T13:22:08.149Z,15.06
2023-03-15T13:25:15.948Z,15.27
2023-03-15T13:27:47.198Z,15.51
2023-03-15T13:30:32.791Z,15.68
2023-03-15T13:33:15.469Z,15.79
2023-03-15T13:36:01.150Z,15.81
2023-03-15T13:38:43.745Z,15.81
2023-03-15T13:41:26.406Z,15.79
2023-03-15T13:43:58.092Z,15.75
2023-03-15T13:46:27.737Z,15.74
2023-03-15T13:48:57.791Z,15.88
2023-03-15T13:51:36.055Z,16.19
2023-03-15T13:54:17.473Z,16.68
2023-03-15T13:57:09.143Z,17.23
2023-03-15T13:59:44.457Z,17.89
2023-03-15T14:02:20.111Z,18.82
2023-03-15T14:04:53.767Z,19.69
2023-03-15T14:07:30.384Z,20.31
2023-03-15T14:10:24.221Z,20.88
2023-03-15T14:12:57.450Z,21.36
2023-03-15T14:15:30.544Z,21.76
2023-03-15T14:18:02.420Z,22.25
2023-03-15T14:20:36.927Z,22.82
2023-03-15T14:23:06.148Z,23.00
2023-03-15T14:25:35.427Z,22.98
2023-03-15T14:28:04.754Z,23.11
2023-03-15T14:30:36.180Z,23.56
2023-03-15T14:33:05.354Z,24.08
2023-03-15T14:35:36.445Z,24.55
2023-03-15T14:38:24.527Z,24.95
2023-03-15T14:40:53.516Z,25.12
2023-03-15T14:43:21.956Z,25.33
2023-03-15T14:45:50.723Z,25.53
2023-03-15T14:48:27.782Z,25.64
2023-03-15T14:50:56.599Z,25.49
2023-03-15T14:53:26.307Z,25.13
2023-03-15T14:55:56.428Z,24.30
2023-03-15T14:58:25.118Z,23.25
2023-03-15T15:00:59.988Z,22.46
2023-03-15T15:03:59.157Z,21.95
2023-03-15T15:06:28.401Z,21.14
2023-03-15T15:08:58.865Z,20.24
2023-03-15T15:11:27.360Z,19.53
2023-03-15T15:13:56.745Z,19.06
2023-03-15T15:16:25.803Z,18.86
2023-03-15T15:18:54.468Z,18.63
2023-03-15T15:21:33.855Z,18.18
2023-03-15T15:24:03.384Z,17.78
2023-03-15T15:26:31.977Z,17.50
2023-03-15T15:29:01.033Z,17.22
2023-03-15T15:31:29.911Z,16.90
2023-03-15T15:34:04.024Z,16.51
2023-03-15T15:36:34.691Z,16.12
2023-03-15T15:39:06.362Z,15.78
2023-03-15T15:41:35.566Z,15.42
2023-03-15T15:44:16.042Z,15.08
2023-03-15T15:46:45.222Z,14.74
2023-03-15T15:49:13.694Z,14.43
2023-03-15T15:51:45.975Z,14.09
2023-03-15T15:54:18.540Z,13.75
2023-03-15T15:56:51.927Z,13.43
2023-03-15T15:59:20.079Z,13.19
2023-03-15T16:02:03.437Z,12.99
2023-03-15T16:04:33.298Z,12.84
2023-03-15T16:07:02.631Z,12.69
2023-03-15T16:09:32.073Z,12.52
2023-03-15T16:12:03.007Z,12.36
2023-03-15T16:14:33.837Z,12.20
2023-03-15T16:17:02.210Z,12.01
2023-03-15T16:19:31.832Z,11.86
2023-03-15T16:22:00.258Z,11.76
2023-03-15T16:24:31.558Z,11.65
2023-03-15T16:27:04.341Z,11.54
2023-03-15T16:29:37.474Z,11.42
2023-03-15T16:32:16.931Z,11.31
2023-03-15T16:34:52.510Z,11.18
2023-03-15T16:37:25.713Z,11.06
2023-03-15T16:39:56.138Z,10.98
2023-03-15T16:42:25.765Z,10.94
2023-03-15T16:44:53.849Z,10.93
2023-03-15T16:47:22.318Z,10.94
2023-03-15T16:49:50.467Z,10.94
2023-03-15T16:52:18.742Z,10.92
2023-03-15T16:54:48.826Z,10.85
2023-03-15T16:57:22.027Z,10.78
2023-03-15T16:59:51.464Z,10.73
2023-03-15T17:02:25.193Z,10.70
2023-03-15T17:04:54.168Z,10.66
2023-03-15T17:07:25.958Z,10.64
2023-03-15T17:09:54.499Z,10.62
2023-03-15T17:12:26.779Z,10.59
2023-03-15T17:14:57.665Z,10.54
2023-03-15T17:17:26.865Z,10.51
2023-03-15T17:20:11.281Z,10.48
2023-03-15T17:22:43.548Z,10.44
2023-03-15T17:25:12.038Z,10.39
2023-03-15T17:27:41.830Z,10.36
2023-03-15T17:30:17.854Z,10.35
2023-03-15T17:32:47.055Z,10.32
2023-03-15T17:35:16.287Z,10.27
2023-03-15T17:37:45.073Z,10.20
2023-03-15T17:40:24.024Z,10.14
2023-03-15T17:42:52.765Z,10.06
2023-03-15T17:45:32.024Z,10.00
2023-03-15T17:48:00.917Z,9.95
2023-03-15T17:50:31.141Z,9.91
2023-03-15T17:53:05.209Z,9.87
2023-03-15T17:55:36.289Z,9.82
2023-03-15T17:58:11.058Z,9.79
2023-03-15T18:00:39.490Z,9.78
2023-03-15T18:03:09.473Z,9.81
2023-03-15T18:05:38.412Z,9.90
2023-03-15T18:08:08.222Z,9.98
2023-03-15T18:10:38.451Z,10.06
2023-03-15T18:13:06.826Z,10.11
2023-03-15T18:15:37.054Z,10.13
2023-03-15T18:18:06.464Z,10.11
2023-03-15T18:20:35.349Z,10.10
2023-03-15T18:23:07.169Z,10.07
2023-03-15T18:25:36.103Z,10.00
2023-03-15T18:28:04.684Z,9.92
2023-03-15T18:30:32.953Z,9.83
2023-03-15T18:33:01.816Z,9.74
2023-03-15T18:35:34.553Z,9.65
2023-03-15T18:38:04.348Z,9.57
2023-03-15T18:40:33.951Z,9.49
2023-03-15T18:43:04.320Z,9.43
2023-03-15T18:45:34.606Z,9.45
2023-03-15T18:48:02.697Z,9.51
2023-03-15T18:50:31.766Z,9.56
2023-03-15T18:53:00.199Z,9.56
2023-03-15T18:55:28.543Z,9.54
2023-03-15T18:57:57.604Z,9.53
2023-03-15T19:00:36.355Z,9.51
2023-03-15T19:03:05.956Z,9.44
2023-03-15T19:05:36.943Z,9.37
2023-03-15T19:08:05.674Z,9.31
2023-03-15T19:10:34.160Z,9.25
2023-03-15T19:13:04.447Z,9.19
2023-03-15T19:15:33.546Z,9.09
2023-03-15T19:18:02.271Z,9.03
2023-03-15T19:20:32.436Z,8.95
2023-03-15T19:23:01.168Z,8.93
2023-03-15T19:25:29.855Z,8.95
2023-03-15T19:28:02.849Z,8.96
2023-03-15T19:30:32.705Z,8.94
2023-03-15T19:33:01.516Z,8.88
2023-03-15T19:35:31.446Z,8.83
2023-03-15T19:38:01.067Z,8.81
2023-03-15T19:40:40.445Z,8.75
2023-03-15T19:43:10.327Z,8.69
2023-03-15T19:45:38.420Z,8.63
2023-03-15T19:48:08.159Z,8.55
2023-03-15T19:50:36.510Z,8.45
2023-03-15T19:53:11.991Z,8.36
2023-03-15T19:55:40.312Z,8.26
2023-03-15T19:58:08.531Z,8.22
2023-03-15T20:00:38.809Z,8.23
2023-03-15T20:03:07.090Z,8.24
2023-03-15T20:05:38.268Z,8.22
2023-03-15T20:08:08.598Z,8.19
2023-03-15T20:10:36.730Z,8.17
2023-03-15T20:13:05.928Z,8.13
2023-03-15T20:15:35.031Z,8.10
2023-03-15T20:18:08.233Z,8.04
2023-03-15T20:20:36.499Z,7.95
2023-03-15T20:23:04.530Z,7.86
2023-03-15T20:25:35.933Z,7.77
2023-03-15T20:28:04.810Z,7.68
2023-03-15T20:30:32.992Z,7.64
2023-03-15T20:33:01.554Z,7.62
2023-03-15T20:35:29.984Z,7.61
2023-03-15T20:38:06.774Z,7.57
2023-03-15T20:40:39.212Z,7.50
2023-03-15T20:43:12.489Z,7.45
2023-03-15T20:45:42.406Z,7.41
2023-03-15T20:48:11.300Z,7.33
2023-03-15T20:50:40.198Z,7.25
2023-03-15T20:53:08.572Z,7.19
2023-03-15T20:55:41.281Z,7.15
2023-03-15T20:58:10.137Z,7.08
2023-03-15T21:00:44.587Z,7.05
2023-03-15T21:03:14.730Z,7.06
2023-03-15T21:05:44.700Z,7.09
2023-03-15T21:08:18.958Z,7.09
2023-03-15T21:10:47.186Z,7.05
2023-03-15T21:13:15.256Z,7.03
2023-03-15T21:15:49.727Z,7.03
2023-03-15T21:18:20.008Z,6.96
2023-03-15T21:20:55.857Z,6.89
2023-03-15T21:23:28.018Z,6.81
2023-03-15T21:25:57.768Z,6.73
2023-03-15T21:28:32.864Z,6.66
2023-03-15T21:31:02.030Z,6.59
2023-03-15T21:33:31.118Z,6.51
2023-03-15T21:36:00.521Z,6.49
2023-03-15T21:38:31.624Z,6.53
2023-03-15T21:41:01.151Z,6.58
2023-03-15T21:43:31.943Z,6.61
2023-03-15T21:46:01.606Z,6.64
2023-03-15T21:48:37.077Z,6.65
2023-03-15T21:51:06.207Z,6.65
2023-03-15T21:53:36.220Z,6.67
2023-03-15T21:56:05.926Z,6.68
2023-03-15T21:58:34.405Z,6.66
2023-03-15T22:01:04.939Z,6.63
2023-03-15T22:03:34.144Z,6.60
2023-03-15T22:06:02.519Z,6.63
2023-03-15T22:08:33.777Z,6.69
2023-03-15T22:11:02.150Z,6.75
2023-03-15T22:13:30.878Z,6.79
2023-03-15T22:15:59.740Z,6.84
2023-03-15T22:18:28.957Z,6.90
2023-03-15T22:20:57.808Z,6.90
2023-03-15T22:23:26.899Z,6.88
2023-03-15T22:25:55.689Z,6.85
2023-03-15T22:28:27.452Z,6.81
2023-03-15T22:30:55.973Z,6.83
2023-03-15T22:33:25.850Z,6.86
2023-03-15T22:35:58.276Z,6.91
2023-03-15T22:38:37.726Z,6.92
2023-03-15T22:41:08.704Z,6.94
2023-03-15T22:43:37.187Z,6.94
2023-03-15T22:46:06.493Z,6.95
2023-03-15T22:48:35.586Z,6.96
2023-03-15T22:51:10.011Z,6.97
2023-03-15T22:53:39.101Z,6.99
2023-03-15T22:56:07.605Z,7.03
2023-03-15T22:58:36.582Z,7.09
2023-03-15T23:01:05.440Z,7.13
2023-03-15T23:03:34.415Z,7.16
2023-03-15T23:06:02.695Z,7.17
2023-03-15T23:08:31.561Z,7.16
2023-03-15T23:11:00.323Z,7.14
2023-03-15T23:13:28.708Z,7.12
2023-03-15T23:16:04.294Z,7.09
2023-03-15T23:18:34.414Z,7.06
2023-03-15T23:21:07.063Z,7.08
2023-03-15T23:23:35.948Z,7.13
2023-03-15T23:26:04.122Z,7.18
2023-03-15T23:28:36.691Z,7.22
2023-03-15T23:31:05.940Z,7.22
2023-03-15T23:33:34.990Z,7.22
2023-03-15T23:36:06.047Z,7.22
2023-03-15T23:38:36.057Z,7.20
2023-03-15T23:41:09.475Z,7.15
2023-03-15T23:43:38.508Z,7.08
2023-03-15T23:46:06.817Z,7.02
2023-03-15T23:48:37.354Z,7.00
2023-03-15T23:51:06.038Z,7.01
2023-03-15T23:53:36.157Z,7.03
2023-03-15T23:56:04.950Z,7.03
2023-03-15T23:58:33.153Z,7.03
